sensor_id;sensor_type;location;lat;lon;timestamp;P1;durP1;ratioP1;P2;durP2;ratioP2
25079;SDS011;13071;48.868;9.996;2023-02-15T00:01:26;16.55;;;6.60;;
25079;SDS011;13071;48.868;9.996;2023-02-15T00:03:53;18.00;;;6.57;;
25079;SDS011;13071;48.868;9.996;2023-02-15T00:06:19;19.05;;;7.20;;
25079;SDS011;13071;48.868;9.996;2023-02-15T00:08:46;14.60;;;5.95;;
25079;SDS011;13071;48.868;9.996;2023-02-15T00:11:13;16.90;;;6.18;;
25079;SDS011;13071;48.868;9.996;2023-02-15T00:13:42;18.15;;;6.45;;
25079;SDS011;13071;48.868;9.996;2023-02-15T00:16:10;17.90;;;6.57;;
25079;SDS011;13071;48.868;9.996;2023-02-15T00:18:38;19.15;;;7.40;;
25079;SDS011;13071;48.868;9.996;2023-02-15T00:21:06;20.20;;;7.13;;
25079;SDS011;13071;48.868;9.996;2023-02-15T00:23:34;21.37;;;6.57;;
25079;SDS011;13071;48.868;9.996;2023-02-15T00:26:05;22.33;;;7.90;;
25079;SDS011;13071;48.868;9.996;2023-02-15T00:28:32;17.17;;;7.07;;
25079;SDS011;13071;48.868;9.996;2023-02-15T00:31:03;18.80;;;6.20;;
25079;SDS011;13071;48.868;9.996;2023-02-15T00:33:34;15.70;;;6.50;;
25079;SDS011;13071;48.868;9.996;2023-02-15T00:36:02;19.03;;;6.77;;
25079;SDS011;13071;48.868;9.996;2023-02-15T00:38:30;16.65;;;6.85;;
25079;SDS011;13071;48.868;9.996;2023-02-15T00:40:57;17.43;;;5.70;;
25079;SDS011;13071;48.868;9.996;2023-02-15T00:43:26;15.73;;;6.50;;
25079;SDS011;13071;48.868;9.996;2023-02-15T00:45:53;24.90;;;7.13;;
25079;SDS011;13071;48.868;9.996;2023-02-15T00:48:20;13.30;;;5.77;;
25079;SDS011;13071;48.868;9.996;2023-02-15T00:50:50;16.77;;;6.73;;
25079;SDS011;13071;48.868;9.996;2023-02-15T00:53:18;18.07;;;6.07;;
25079;SDS011;13071;48.868;9.996;2023-02-15T00:55:44;18.97;;;7.00;;
25079;SDS011;13071;48.868;9.996;2023-02-15T00:58:11;20.57;;;6.20;;
25079;SDS011;13071;48.868;9.996;2023-02-15T01:00:38;18.20;;;6.70;;
25079;SDS011;13071;48.868;9.996;2023-02-15T01:03:07;17.45;;;6.00;;
25079;SDS011;13071;48.868;9.996;2023-02-15T01:05:33;19.15;;;6.75;;
25079;SDS011;13071;48.868;9.996;2023-02-15T01:08:01;18.10;;;6.10;;
25079;SDS011;13071;48.868;9.996;2023-02-15T01:10:28;20.30;;;7.13;;
25079;SDS011;13071;48.868;9.996;2023-02-15T01:12:55;15.50;;;7.13;;
25079;SDS011;13071;48.868;9.996;2023-02-15T01:15:22;14.60;;;6.37;;
25079;SDS011;13071;48.868;9.996;2023-02-15T01:17:49;20.87;;;7.37;;
25079;SDS011;13071;48.868;9.996;2023-02-15T01:20:18;20.97;;;6.97;;
25079;SDS011;13071;48.868;9.996;2023-02-15T01:22:46;17.93;;;6.40;;
25079;SDS011;13071;48.868;9.996;2023-02-15T01:25:16;18.57;;;7.30;;
25079;SDS011;13071;48.868;9.996;2023-02-15T01:27:43;16.37;;;6.33;;
25079;SDS011;13071;48.868;9.996;2023-02-15T01:30:10;23.10;;;7.23;;
25079;SDS011;13071;48.868;9.996;2023-02-15T01:32:37;18.93;;;7.37;;
25079;SDS011;13071;48.868;9.996;2023-02-15T01:35:04;27.33;;;8.10;;
25079;SDS011;13071;48.868;9.996;2023-02-15T01:37:31;17.37;;;6.53;;
25079;SDS011;13071;48.868;9.996;2023-02-15T01:39:58;20.73;;;6.80;;
25079;SDS011;13071;48.868;9.996;2023-02-15T01:42:27;18.70;;;7.63;;
25079;SDS011;13071;48.868;9.996;2023-02-15T01:44:55;21.10;;;7.27;;
25079;SDS011;13071;48.868;9.996;2023-02-15T01:47:24;18.50;;;6.83;;
25079;SDS011;13071;48.868;9.996;2023-02-15T01:50:01;20.40;;;5.80;;
25079;SDS011;13071;48.868;9.996;2023-02-15T01:52:34;16.33;;;6.77;;
25079;SDS011;13071;48.868;9.996;2023-02-15T01:55:06;12.53;;;4.97;;
25079;SDS011;13071;48.868;9.996;2023-02-15T01:57:36;18.70;;;5.80;;
25079;SDS011;13071;48.868;9.996;2023-02-15T02:00:04;17.37;;;6.57;;
25079;SDS011;13071;48.868;9.996;2023-02-15T02:02:34;19.87;;;6.90;;
25079;SDS011;13071;48.868;9.996;2023-02-15T02:05:02;16.97;;;6.00;;
25079;SDS011;13071;48.868;9.996;2023-02-15T02:07:32;17.33;;;6.37;;
25079;SDS011;13071;48.868;9.996;2023-02-15T02:10:00;21.23;;;8.20;;
25079;SDS011;13071;48.868;9.996;2023-02-15T02:12:28;18.50;;;6.53;;
25079;SDS011;13071;48.868;9.996;2023-02-15T02:14:56;17.73;;;6.87;;
25079;SDS011;13071;48.868;9.996;2023-02-15T02:17:26;14.20;;;6.10;;
25079;SDS011;13071;48.868;9.996;2023-02-15T02:29:17;16.93;;;6.07;;
25079;SDS011;13071;48.868;9.996;2023-02-15T02:32:04;15.33;;;6.27;;
25079;SDS011;13071;48.868;9.996;2023-02-15T02:34:46;11.53;;;5.53;;
25079;SDS011;13071;48.868;9.996;2023-02-15T02:37:19;16.43;;;6.63;;
25079;SDS011;13071;48.868;9.996;2023-02-15T02:39:51;13.10;;;6.17;;
25079;SDS011;13071;48.868;9.996;2023-02-15T02:42:27;13.97;;;5.67;;
25079;SDS011;13071;48.868;9.996;2023-02-15T02:45:00;17.20;;;6.20;;
25079;SDS011;13071;48.868;9.996;2023-02-15T02:47:30;19.57;;;5.90;;
25079;SDS011;13071;48.868;9.996;2023-02-15T02:50:04;11.10;;;4.83;;
25079;SDS011;13071;48.868;9.996;2023-02-15T02:52:34;18.30;;;6.27;;
25079;SDS011;13071;48.868;9.996;2023-02-15T02:55:05;13.63;;;5.83;;
25079;SDS011;13071;48.868;9.996;2023-02-15T02:57:36;16.43;;;6.17;;
25079;SDS011;13071;48.868;9.996;2023-02-15T03:00:07;14.73;;;6.17;;
25079;SDS011;13071;48.868;9.996;2023-02-15T03:02:36;17.10;;;6.27;;
25079;SDS011;13071;48.868;9.996;2023-02-15T03:05:08;15.67;;;6.10;;
25079;SDS011;13071;48.868;9.996;2023-02-15T03:07:39;16.90;;;5.83;;
25079;SDS011;13071;48.868;9.996;2023-02-15T03:10:09;19.37;;;6.63;;
25079;SDS011;13071;48.868;9.996;2023-02-15T03:12:36;12.70;;;5.23;;
25079;SDS011;13071;48.868;9.996;2023-02-15T03:15:06;17.60;;;6.00;;
25079;SDS011;13071;48.868;9.996;2023-02-15T03:17:37;13.77;;;5.50;;
25079;SDS011;13071;48.868;9.996;2023-02-15T03:20:11;11.07;;;4.87;;
25079;SDS011;13071;48.868;9.996;2023-02-15T03:22:42;17.03;;;6.10;;
25079;SDS011;13071;48.868;9.996;2023-02-15T03:25:14;20.10;;;6.30;;
25079;SDS011;13071;48.868;9.996;2023-02-15T03:27:46;17.30;;;6.43;;
25079;SDS011;13071;48.868;9.996;2023-02-15T03:30:16;19.70;;;6.03;;
25079;SDS011;13071;48.868;9.996;2023-02-15T03:32:47;19.67;;;6.47;;
25079;SDS011;13071;48.868;9.996;2023-02-15T03:35:17;19.20;;;6.73;;
25079;SDS011;13071;48.868;9.996;2023-02-15T03:37:47;12.30;;;5.13;;
25079;SDS011;13071;48.868;9.996;2023-02-15T03:40:18;15.20;;;6.33;;
25079;SDS011;13071;48.868;9.996;2023-02-15T03:43:07;14.63;;;6.23;;
25079;SDS011;13071;48.868;9.996;2023-02-15T03:45:38;13.43;;;5.67;;
25079;SDS011;13071;48.868;9.996;2023-02-15T03:48:19;15.13;;;6.20;;
25079;SDS011;13071;48.868;9.996;2023-02-15T03:50:51;20.97;;;6.80;;
25079;SDS011;13071;48.868;9.996;2023-02-15T03:53:39;12.87;;;4.97;;
25079;SDS011;13071;48.868;9.996;2023-02-15T03:56:07;16.63;;;5.87;;
25079;SDS011;13071;48.868;9.996;2023-02-15T03:58:33;14.07;;;5.37;;
25079;SDS011;13071;48.868;9.996;2023-02-15T04:01:18;16.77;;;5.87;;
25079;SDS011;13071;48.868;9.996;2023-02-15T04:04:09;15.87;;;5.53;;
25079;SDS011;13071;48.868;9.996;2023-02-15T04:06:43;16.13;;;5.20;;
25079;SDS011;13071;48.868;9.996;2023-02-15T04:09:09;18.77;;;6.63;;
25079;SDS011;13071;48.868;9.996;2023-02-15T04:11:53;11.00;;;5.40;;
25079;SDS011;13071;48.868;9.996;2023-02-15T04:14:20;14.07;;;5.83;;
25079;SDS011;13071;48.868;9.996;2023-02-15T04:17:05;14.27;;;5.83;;
25079;SDS011;13071;48.868;9.996;2023-02-15T04:19:32;13.13;;;5.97;;
25079;SDS011;13071;48.868;9.996;2023-02-15T04:22:17;16.20;;;5.47;;
25079;SDS011;13071;48.868;9.996;2023-02-15T04:25:01;13.93;;;5.27;;
25079;SDS011;13071;48.868;9.996;2023-02-15T04:27:38;17.87;;;6.23;;
25079;SDS011;13071;48.868;9.996;2023-02-15T04:30:05;13.90;;;5.50;;
25079;SDS011;13071;48.868;9.996;2023-02-15T04:32:32;10.63;;;5.10;;
25079;SDS011;13071;48.868;9.996;2023-02-15T04:34:59;14.13;;;5.70;;
25079;SDS011;13071;48.868;9.996;2023-02-15T04:37:27;13.20;;;6.17;;
25079;SDS011;13071;48.868;9.996;2023-02-15T04:39:54;18.47;;;6.40;;
25079;SDS011;13071;48.868;9.996;2023-02-15T04:42:21;18.67;;;5.17;;
25079;SDS011;13071;48.868;9.996;2023-02-15T04:44:47;14.40;;;5.93;;
25079;SDS011;13071;48.868;9.996;2023-02-15T04:47:14;12.87;;;5.90;;
25079;SDS011;13071;48.868;9.996;2023-02-15T04:49:40;18.47;;;6.53;;
25079;SDS011;13071;48.868;9.996;2023-02-15T04:52:07;9.50;;;5.77;;
25079;SDS011;13071;48.868;9.996;2023-02-15T04:54:35;11.47;;;5.33;;
25079;SDS011;13071;48.868;9.996;2023-02-15T04:57:03;18.67;;;6.37;;
25079;SDS011;13071;48.868;9.996;2023-02-15T04:59:29;15.23;;;6.53;;
25079;SDS011;13071;48.868;9.996;2023-02-15T05:01:56;16.03;;;5.23;;
25079;SDS011;13071;48.868;9.996;2023-02-15T05:04:22;20.20;;;6.97;;
25079;SDS011;13071;48.868;9.996;2023-02-15T05:06:49;13.70;;;5.07;;
25079;SDS011;13071;48.868;9.996;2023-02-15T05:09:16;15.30;;;5.93;;
25079;SDS011;13071;48.868;9.996;2023-02-15T05:11:44;12.83;;;5.33;;
25079;SDS011;13071;48.868;9.996;2023-02-15T05:14:11;19.47;;;6.03;;
25079;SDS011;13071;48.868;9.996;2023-02-15T05:16:38;13.17;;;5.57;;
25079;SDS011;13071;48.868;9.996;2023-02-15T05:19:05;14.10;;;5.80;;
25079;SDS011;13071;48.868;9.996;2023-02-15T05:21:32;16.57;;;6.07;;
25079;SDS011;13071;48.868;9.996;2023-02-15T05:23:59;21.43;;;5.93;;
25079;SDS011;13071;48.868;9.996;2023-02-15T05:26:47;12.77;;;5.23;;
25079;SDS011;13071;48.868;9.996;2023-02-15T05:29:31;13.37;;;5.53;;
25079;SDS011;13071;48.868;9.996;2023-02-15T05:31:57;11.47;;;4.73;;
25079;SDS011;13071;48.868;9.996;2023-02-15T05:34:24;16.57;;;5.57;;
25079;SDS011;13071;48.868;9.996;2023-02-15T05:36:50;19.03;;;5.73;;
25079;SDS011;13071;48.868;9.996;2023-02-15T05:39:17;12.37;;;5.40;;
25079;SDS011;13071;48.868;9.996;2023-02-15T05:41:43;15.03;;;5.33;;
25079;SDS011;13071;48.868;9.996;2023-02-15T05:44:11;13.63;;;5.30;;
25079;SDS011;13071;48.868;9.996;2023-02-15T05:46:38;13.90;;;5.27;;
25079;SDS011;13071;48.868;9.996;2023-02-15T05:49:04;14.53;;;5.70;;
25079;SDS011;13071;48.868;9.996;2023-02-15T05:51:31;11.70;;;5.77;;
25079;SDS011;13071;48.868;9.996;2023-02-15T05:53:57;13.80;;;5.37;;
25079;SDS011;13071;48.868;9.996;2023-02-15T05:56:24;10.93;;;4.77;;
25079;SDS011;13071;48.868;9.996;2023-02-15T05:58:52;13.80;;;5.63;;
25079;SDS011;13071;48.868;9.996;2023-02-15T06:01:21;15.07;;;5.60;;
25079;SDS011;13071;48.868;9.996;2023-02-15T06:03:47;14.20;;;5.77;;
25079;SDS011;13071;48.868;9.996;2023-02-15T06:06:14;11.43;;;5.37;;
25079;SDS011;13071;48.868;9.996;2023-02-15T06:08:41;12.73;;;5.03;;
25079;SDS011;13071;48.868;9.996;2023-02-15T06:11:08;17.27;;;5.20;;
25079;SDS011;13071;48.868;9.996;2023-02-15T06:13:35;15.17;;;5.30;;
25079;SDS011;13071;48.868;9.996;2023-02-15T06:16:02;13.97;;;5.37;;
25079;SDS011;13071;48.868;9.996;2023-02-15T06:18:30;12.57;;;5.47;;
25079;SDS011;13071;48.868;9.996;2023-02-15T06:20:56;11.30;;;4.67;;
25079;SDS011;13071;48.868;9.996;2023-02-15T06:23:23;10.70;;;5.17;;
25079;SDS011;13071;48.868;9.996;2023-02-15T06:25:49;12.07;;;5.63;;
25079;SDS011;13071;48.868;9.996;2023-02-15T06:28:16;10.63;;;4.67;;
25079;SDS011;13071;48.868;9.996;2023-02-15T06:30:43;12.30;;;4.93;;
25079;SDS011;13071;48.868;9.996;2023-02-15T06:33:09;14.80;;;5.53;;
25079;SDS011;13071;48.868;9.996;2023-02-15T06:35:37;14.60;;;4.27;;
25079;SDS011;13071;48.868;9.996;2023-02-15T06:38:04;18.87;;;6.60;;
25079;SDS011;13071;48.868;9.996;2023-02-15T06:40:30;14.83;;;4.60;;
25079;SDS011;13071;48.868;9.996;2023-02-15T06:42:57;16.47;;;5.60;;
25079;SDS011;13071;48.868;9.996;2023-02-15T06:45:23;13.10;;;6.13;;
25079;SDS011;13071;48.868;9.996;2023-02-15T06:47:50;9.63;;;4.30;;
25079;SDS011;13071;48.868;9.996;2023-02-15T06:50:16;13.50;;;4.80;;
25079;SDS011;13071;48.868;9.996;2023-02-15T06:52:44;11.50;;;4.83;;
25079;SDS011;13071;48.868;9.996;2023-02-15T06:55:11;15.53;;;5.73;;
25079;SDS011;13071;48.868;9.996;2023-02-15T06:57:37;13.03;;;5.53;;
25079;SDS011;13071;48.868;9.996;2023-02-15T07:00:05;21.70;;;6.40;;
25079;SDS011;13071;48.868;9.996;2023-02-15T07:02:33;13.53;;;5.17;;
25079;SDS011;13071;48.868;9.996;2023-02-15T07:04:59;13.03;;;4.53;;
25079;SDS011;13071;48.868;9.996;2023-02-15T07:07:27;12.40;;;5.07;;
25079;SDS011;13071;48.868;9.996;2023-02-15T07:09:55;11.10;;;5.07;;
25079;SDS011;13071;48.868;9.996;2023-02-15T07:12:22;13.67;;;5.03;;
25079;SDS011;13071;48.868;9.996;2023-02-15T07:15:06;15.97;;;6.33;;
25079;SDS011;13071;48.868;9.996;2023-02-15T07:17:34;13.07;;;6.23;;
25079;SDS011;13071;48.868;9.996;2023-02-15T07:20:00;20.17;;;6.53;;
25079;SDS011;13071;48.868;9.996;2023-02-15T07:22:27;20.57;;;5.97;;
25079;SDS011;13071;48.868;9.996;2023-02-15T07:24:55;15.60;;;5.80;;
25079;SDS011;13071;48.868;9.996;2023-02-15T07:27:22;13.23;;;4.97;;
25079;SDS011;13071;48.868;9.996;2023-02-15T07:29:48;15.70;;;5.10;;
25079;SDS011;13071;48.868;9.996;2023-02-15T07:32:15;17.80;;;5.80;;
25079;SDS011;13071;48.868;9.996;2023-02-15T07:34:41;18.07;;;6.77;;
25079;SDS011;13071;48.868;9.996;2023-02-15T07:37:08;14.03;;;5.77;;
25079;SDS011;13071;48.868;9.996;2023-02-15T07:39:34;17.13;;;6.83;;
25079;SDS011;13071;48.868;9.996;2023-02-15T07:42:02;12.77;;;5.80;;
25079;SDS011;13071;48.868;9.996;2023-02-15T07:44:29;18.23;;;6.17;;
25079;SDS011;13071;48.868;9.996;2023-02-15T07:46:55;19.37;;;6.17;;
25079;SDS011;13071;48.868;9.996;2023-02-15T07:49:22;17.67;;;5.97;;
25079;SDS011;13071;48.868;9.996;2023-02-15T07:51:49;11.30;;;5.63;;
25079;SDS011;13071;48.868;9.996;2023-02-15T07:54:15;14.07;;;5.85;;
25079;SDS011;13071;48.868;9.996;2023-02-15T07:56:42;27.07;;;6.57;;
25079;SDS011;13071;48.868;9.996;2023-02-15T07:59:10;12.18;;;5.05;;
25079;SDS011;13071;48.868;9.996;2023-02-15T08:01:37;17.70;;;6.27;;
25079;SDS011;13071;48.868;9.996;2023-02-15T08:04:04;23.08;;;6.97;;
25079;SDS011;13071;48.868;9.996;2023-02-15T08:06:33;20.75;;;7.00;;
25079;SDS011;13071;48.868;9.996;2023-02-15T08:09:00;15.70;;;6.50;;
25079;SDS011;13071;48.868;9.996;2023-02-15T08:11:30;17.88;;;6.53;;
25079;SDS011;13071;48.868;9.996;2023-02-15T08:14:03;15.07;;;6.45;;
25079;SDS011;13071;48.868;9.996;2023-02-15T08:16:34;20.63;;;8.38;;
25079;SDS011;13071;48.868;9.996;2023-02-15T08:19:02;22.58;;;7.78;;
25079;SDS011;13071;48.868;9.996;2023-02-15T08:21:30;20.97;;;7.13;;
25079;SDS011;13071;48.868;9.996;2023-02-15T08:23:58;20.52;;;7.05;;
25079;SDS011;13071;48.868;9.996;2023-02-15T08:26:26;19.45;;;7.60;;
25079;SDS011;13071;48.868;9.996;2023-02-15T08:28:54;21.88;;;7.85;;
25079;SDS011;13071;48.868;9.996;2023-02-15T08:31:20;23.05;;;8.05;;
25079;SDS011;13071;48.868;9.996;2023-02-15T08:33:50;15.38;;;7.20;;
25079;SDS011;13071;48.868;9.996;2023-02-15T08:36:18;18.45;;;7.80;;
25079;SDS011;13071;48.868;9.996;2023-02-15T08:38:45;18.85;;;7.80;;
25079;SDS011;13071;48.868;9.996;2023-02-15T08:41:13;16.92;;;7.45;;
25079;SDS011;13071;48.868;9.996;2023-02-15T08:43:41;22.77;;;7.35;;
25079;SDS011;13071;48.868;9.996;2023-02-15T08:46:09;15.45;;;6.90;;
25079;SDS011;13071;48.868;9.996;2023-02-15T08:48:37;17.83;;;7.07;;
25079;SDS011;13071;48.868;9.996;2023-02-15T08:51:06;23.52;;;7.32;;
25079;SDS011;13071;48.868;9.996;2023-02-15T08:53:35;21.80;;;7.57;;
25079;SDS011;13071;48.868;9.996;2023-02-15T08:56:02;21.13;;;8.35;;
25079;SDS011;13071;48.868;9.996;2023-02-15T08:58:29;16.83;;;8.10;;
25079;SDS011;13071;48.868;9.996;2023-02-15T09:00:56;22.83;;;7.93;;
25079;SDS011;13071;48.868;9.996;2023-02-15T09:03:23;18.48;;;7.43;;
25079;SDS011;13071;48.868;9.996;2023-02-15T09:05:49;19.95;;;8.68;;
25079;SDS011;13071;48.868;9.996;2023-02-15T09:08:18;26.48;;;8.32;;
25079;SDS011;13071;48.868;9.996;2023-02-15T09:10:45;19.98;;;8.20;;
25079;SDS011;13071;48.868;9.996;2023-02-15T09:13:11;20.90;;;9.15;;
25079;SDS011;13071;48.868;9.996;2023-02-15T09:15:38;21.08;;;8.35;;
25079;SDS011;13071;48.868;9.996;2023-02-15T09:18:05;21.65;;;8.63;;
25079;SDS011;13071;48.868;9.996;2023-02-15T09:20:34;18.65;;;8.70;;
25079;SDS011;13071;48.868;9.996;2023-02-15T09:23:01;18.88;;;8.32;;
25079;SDS011;13071;48.868;9.996;2023-02-15T09:25:29;19.98;;;8.27;;
25079;SDS011;13071;48.868;9.996;2023-02-15T09:27:56;19.50;;;8.60;;
25079;SDS011;13071;48.868;9.996;2023-02-15T09:30:22;21.27;;;8.27;;
25079;SDS011;13071;48.868;9.996;2023-02-15T09:32:49;19.77;;;9.23;;
25079;SDS011;13071;48.868;9.996;2023-02-15T09:35:16;20.00;;;8.57;;
25079;SDS011;13071;48.868;9.996;2023-02-15T09:37:42;22.20;;;8.65;;
25079;SDS011;13071;48.868;9.996;2023-02-15T09:40:10;20.58;;;9.80;;
25079;SDS011;13071;48.868;9.996;2023-02-15T09:42:58;22.90;;;9.68;;
25079;SDS011;13071;48.868;9.996;2023-02-15T09:45:47;19.33;;;8.85;;
25079;SDS011;13071;48.868;9.996;2023-02-15T09:51:27;22.25;;;9.88;;
25079;SDS011;13071;48.868;9.996;2023-02-15T09:54:10;22.48;;;8.73;;
25079;SDS011;13071;48.868;9.996;2023-02-15T09:56:45;20.75;;;8.90;;
25079;SDS011;13071;48.868;9.996;2023-02-15T09:59:19;25.33;;;9.38;;
25079;SDS011;13071;48.868;9.996;2023-02-15T10:01:56;22.77;;;9.85;;
25079;SDS011;13071;48.868;9.996;2023-02-15T10:04:39;20.77;;;9.45;;
25079;SDS011;13071;48.868;9.996;2023-02-15T10:07:18;21.65;;;8.88;;
25079;SDS011;13071;48.868;9.996;2023-02-15T10:10:01;19.52;;;8.48;;
25079;SDS011;13071;48.868;9.996;2023-02-15T10:12:40;22.15;;;9.20;;
25079;SDS011;13071;48.868;9.996;2023-02-15T10:15:19;24.30;;;9.50;;
25079;SDS011;13071;48.868;9.996;2023-02-15T10:20:57;20.35;;;9.20;;
25079;SDS011;13071;48.868;9.996;2023-02-15T10:23:39;24.05;;;9.93;;
25079;SDS011;13071;48.868;9.996;2023-02-15T10:26:16;20.60;;;9.88;;
25079;SDS011;13071;48.868;9.996;2023-02-15T10:28:46;22.15;;;9.77;;
25079;SDS011;13071;48.868;9.996;2023-02-15T10:31:20;22.85;;;10.40;;
25079;SDS011;13071;48.868;9.996;2023-02-15T10:33:52;21.45;;;10.20;;
25079;SDS011;13071;48.868;9.996;2023-02-15T10:36:38;22.38;;;9.70;;
25079;SDS011;13071;48.868;9.996;2023-02-15T10:39:20;23.92;;;9.73;;
25079;SDS011;13071;48.868;9.996;2023-02-15T10:41:56;25.02;;;9.98;;
25079;SDS011;13071;48.868;9.996;2023-02-15T10:44:36;20.65;;;9.27;;
25079;SDS011;13071;48.868;9.996;2023-02-15T10:47:20;20.27;;;9.40;;
25079;SDS011;13071;48.868;9.996;2023-02-15T10:50:09;22.98;;;9.98;;
25079;SDS011;13071;48.868;9.996;2023-02-15T10:52:48;20.42;;;9.35;;
25079;SDS011;13071;48.868;9.996;2023-02-15T10:55:26;21.27;;;9.10;;
25079;SDS011;13071;48.868;9.996;2023-02-15T10:58:05;22.02;;;9.85;;
25079;SDS011;13071;48.868;9.996;2023-02-15T11:00:44;20.27;;;9.93;;
25079;SDS011;13071;48.868;9.996;2023-02-15T11:06:03;18.15;;;8.88;;
25079;SDS011;13071;48.868;9.996;2023-02-15T11:08:32;24.95;;;9.82;;
25079;SDS011;13071;48.868;9.996;2023-02-15T11:11:02;21.05;;;9.23;;
25079;SDS011;13071;48.868;9.996;2023-02-15T11:13:32;23.08;;;9.63;;
25079;SDS011;13071;48.868;9.996;2023-02-15T11:16:03;18.70;;;9.25;;
25079;SDS011;13071;48.868;9.996;2023-02-15T11:18:36;18.50;;;9.00;;
25079;SDS011;13071;48.868;9.996;2023-02-15T11:21:06;20.33;;;9.10;;
25079;SDS011;13071;48.868;9.996;2023-02-15T11:23:39;19.00;;;9.07;;
25079;SDS011;13071;48.868;9.996;2023-02-15T11:26:11;17.63;;;8.88;;
25079;SDS011;13071;48.868;9.996;2023-02-15T11:28:43;19.98;;;8.55;;
25079;SDS011;13071;48.868;9.996;2023-02-15T11:31:15;19.40;;;9.65;;
25079;SDS011;13071;48.868;9.996;2023-02-15T11:33:45;18.52;;;9.25;;
25079;SDS011;13071;48.868;9.996;2023-02-15T11:36:17;19.75;;;8.93;;
25079;SDS011;13071;48.868;9.996;2023-02-15T11:38:48;20.48;;;8.65;;
25079;SDS011;13071;48.868;9.996;2023-02-15T11:41:22;16.52;;;8.43;;
25079;SDS011;13071;48.868;9.996;2023-02-15T11:43:54;16.65;;;8.23;;
25079;SDS011;13071;48.868;9.996;2023-02-15T11:46:25;18.13;;;8.25;;
25079;SDS011;13071;48.868;9.996;2023-02-15T11:48:54;19.40;;;8.55;;
25079;SDS011;13071;48.868;9.996;2023-02-15T11:51:23;20.77;;;9.27;;
25079;SDS011;13071;48.868;9.996;2023-02-15T11:53:52;18.77;;;8.73;;
25079;SDS011;13071;48.868;9.996;2023-02-15T11:56:20;21.60;;;8.85;;
25079;SDS011;13071;48.868;9.996;2023-02-15T11:58:49;18.48;;;8.27;;
25079;SDS011;13071;48.868;9.996;2023-02-15T12:01:22;17.45;;;8.25;;
25079;SDS011;13071;48.868;9.996;2023-02-15T12:03:55;16.83;;;8.07;;
25079;SDS011;13071;48.868;9.996;2023-02-15T12:06:26;19.60;;;8.20;;
25079;SDS011;13071;48.868;9.996;2023-02-15T12:08:56;15.38;;;7.68;;
25079;SDS011;13071;48.868;9.996;2023-02-15T12:11:33;17.60;;;7.82;;
25079;SDS011;13071;48.868;9.996;2023-02-15T12:14:03;18.23;;;7.95;;
25079;SDS011;13071;48.868;9.996;2023-02-15T12:16:32;18.23;;;8.43;;
25079;SDS011;13071;48.868;9.996;2023-02-15T12:19:11;17.42;;;8.00;;
25079;SDS011;13071;48.868;9.996;2023-02-15T12:21:49;19.35;;;7.35;;
25079;SDS011;13071;48.868;9.996;2023-02-15T12:24:18;14.90;;;7.78;;
25079;SDS011;13071;48.868;9.996;2023-02-15T12:26:55;16.80;;;7.97;;
25079;SDS011;13071;48.868;9.996;2023-02-15T12:29:25;14.32;;;7.28;;
25079;SDS011;13071;48.868;9.996;2023-02-15T12:31:55;16.10;;;8.15;;
25079;SDS011;13071;48.868;9.996;2023-02-15T12:34:25;14.63;;;7.45;;
25079;SDS011;13071;48.868;9.996;2023-02-15T12:36:56;18.40;;;7.70;;
25079;SDS011;13071;48.868;9.996;2023-02-15T12:39:27;15.18;;;7.78;;
25079;SDS011;13071;48.868;9.996;2023-02-15T12:42:03;15.63;;;7.90;;
25079;SDS011;13071;48.868;9.996;2023-02-15T12:44:32;14.75;;;7.68;;
25079;SDS011;13071;48.868;9.996;2023-02-15T12:47:00;14.18;;;7.70;;
25079;SDS011;13071;48.868;9.996;2023-02-15T12:49:30;17.10;;;7.70;;
25079;SDS011;13071;48.868;9.996;2023-02-15T12:51:58;17.38;;;7.70;;
25079;SDS011;13071;48.868;9.996;2023-02-15T12:54:33;15.52;;;7.85;;
25079;SDS011;13071;48.868;9.996;2023-02-15T12:57:15;15.20;;;7.70;;
25079;SDS011;13071;48.868;9.996;2023-02-15T12:59:49;15.32;;;7.15;;
25079;SDS011;13071;48.868;9.996;2023-02-15T13:02:19;18.08;;;7.40;;
25079;SDS011;13071;48.868;9.996;2023-02-15T13:04:50;13.95;;;7.60;;
25079;SDS011;13071;48.868;9.996;2023-02-15T13:07:18;14.82;;;7.13;;
25079;SDS011;13071;48.868;9.996;2023-02-15T13:09:45;14.82;;;7.53;;
25079;SDS011;13071;48.868;9.996;2023-02-15T13:12:16;16.45;;;8.38;;
25079;SDS011;13071;48.868;9.996;2023-02-15T13:14:47;20.50;;;8.90;;
25079;SDS011;13071;48.868;9.996;2023-02-15T13:17:16;19.42;;;8.73;;
25079;SDS011;13071;48.868;9.996;2023-02-15T13:19:46;19.27;;;9.45;;
25079;SDS011;13071;48.868;9.996;2023-02-15T13:22:19;17.00;;;8.30;;
25079;SDS011;13071;48.868;9.996;2023-02-15T13:24:49;17.63;;;8.70;;
25079;SDS011;13071;48.868;9.996;2023-02-15T13:27:20;19.05;;;8.85;;
25079;SDS011;13071;48.868;9.996;2023-02-15T13:29:50;17.80;;;9.07;;
25079;SDS011;13071;48.868;9.996;2023-02-15T13:32:25;20.13;;;9.40;;
25079;SDS011;13071;48.868;9.996;2023-02-15T13:34:56;18.30;;;9.48;;
25079;SDS011;13071;48.868;9.996;2023-02-15T13:37:30;19.67;;;9.25;;
25079;SDS011;13071;48.868;9.996;2023-02-15T13:40:10;19.20;;;9.38;;
25079;SDS011;13071;48.868;9.996;2023-02-15T13:42:42;17.25;;;8.65;;
25079;SDS011;13071;48.868;9.996;2023-02-15T13:45:19;18.80;;;8.95;;
25079;SDS011;13071;48.868;9.996;2023-02-15T13:47:56;16.38;;;8.73;;
25079;SDS011;13071;48.868;9.996;2023-02-15T13:50:31;19.17;;;8.52;;
25079;SDS011;13071;48.868;9.996;2023-02-15T13:53:16;15.63;;;7.72;;
25079;SDS011;13071;48.868;9.996;2023-02-15T13:55:54;18.60;;;8.65;;
25079;SDS011;13071;48.868;9.996;2023-02-15T13:58:32;15.70;;;7.57;;
25079;SDS011;13071;48.868;9.996;2023-02-15T14:01:19;13.52;;;7.32;;
25079;SDS011;13071;48.868;9.996;2023-02-15T14:04:03;17.02;;;8.32;;
25079;SDS011;13071;48.868;9.996;2023-02-15T14:07:05;15.32;;;8.10;;
25079;SDS011;13071;48.868;9.996;2023-02-15T14:09:46;16.30;;;7.32;;
25079;SDS011;13071;48.868;9.996;2023-02-15T14:12:31;16.60;;;7.75;;
25079;SDS011;13071;48.868;9.996;2023-02-15T14:15:09;14.45;;;7.88;;
25079;SDS011;13071;48.868;9.996;2023-02-15T14:17:49;16.65;;;8.38;;
25079;SDS011;13071;48.868;9.996;2023-02-15T14:20:23;17.83;;;7.68;;
25079;SDS011;13071;48.868;9.996;2023-02-15T14:23:06;16.00;;;8.15;;
25079;SDS011;13071;48.868;9.996;2023-02-15T14:25:42;15.10;;;7.85;;
25079;SDS011;13071;48.868;9.996;2023-02-15T14:28:16;15.43;;;7.43;;
25079;SDS011;13071;48.868;9.996;2023-02-15T14:30:49;15.38;;;7.43;;
25079;SDS011;13071;48.868;9.996;2023-02-15T14:33:28;16.13;;;7.85;;
25079;SDS011;13071;48.868;9.996;2023-02-15T14:35:58;14.88;;;7.55;;
25079;SDS011;13071;48.868;9.996;2023-02-15T14:38:29;17.65;;;7.93;;
25079;SDS011;13071;48.868;9.996;2023-02-15T14:41:11;14.73;;;7.78;;
25079;SDS011;13071;48.868;9.996;2023-02-15T14:43:43;17.98;;;7.68;;
25079;SDS011;13071;48.868;9.996;2023-02-15T14:46:18;16.08;;;7.90;;
25079;SDS011;13071;48.868;9.996;2023-02-15T14:48:53;12.98;;;6.63;;
25079;SDS011;13071;48.868;9.996;2023-02-15T14:57:27;16.38;;;7.60;;
25079;SDS011;13071;48.868;9.996;2023-02-15T14:59:56;14.57;;;7.20;;
25079;SDS011;13071;48.868;9.996;2023-02-15T15:02:25;12.50;;;7.10;;
25079;SDS011;13071;48.868;9.996;2023-02-15T15:04:56;11.57;;;6.85;;
25079;SDS011;13071;48.868;9.996;2023-02-15T15:07:27;12.57;;;6.28;;
25079;SDS011;13071;48.868;9.996;2023-02-15T15:10:03;12.30;;;6.22;;
25079;SDS011;13071;48.868;9.996;2023-02-15T15:12:42;10.00;;;5.55;;
25079;SDS011;13071;48.868;9.996;2023-02-15T15:15:11;11.20;;;6.28;;
25079;SDS011;13071;48.868;9.996;2023-02-15T15:17:53;20.70;;;8.07;;
25079;SDS011;13071;48.868;9.996;2023-02-15T15:20:38;16.40;;;7.95;;